sensor_id;sensor_type;location;lat;lon;timestamp;pressure;altitude;pressure_sealevel;temperature;humidity
76337;BME280;65157;50.082;18.178;2023-12-04T00:00:01;100003.08;;;-4.48;82.04
76337;BME280;65157;50.082;18.178;2023-12-04T00:02:28;100004.91;;;-4.49;82.18
76337;BME280;65157;50.082;18.178;2023-12-04T00:04:55;100003.33;;;-4.51;82.39
76337;BME280;65157;50.082;18.178;2023-12-04T00:07:21;100009.98;;;-4.52;82.15
76337;BME280;65157;50.082;18.178;2023-12-04T00:09:48;100001.13;;;-4.55;82.31
76337;BME280;65157;50.082;18.178;2023-12-04T00:12:15;100001.33;;;-4.54;82.53
76337;BME280;65157;50.082;18.178;2023-12-04T00:14:41;99996.60;;;-4.57;82.67
76337;BME280;65157;50.082;18.178;2023-12-04T00:17:08;100002.30;;;-4.57;82.83
76337;BME280;65157;50.082;18.178;2023-12-04T00:19:34;100006.65;;;-4.54;82.69
76337;BME280;65157;50.082;18.178;2023-12-04T00:22:01;100008.41;;;-4.53;82.78
76337;BME280;65157;50.082;18.178;2023-12-04T00:24:28;100004.80;;;-4.52;82.93
76337;BME280;65157;50.082;18.178;2023-12-04T00:26:55;100004.30;;;-4.52;82.74
76337;BME280;65157;50.082;18.178;2023-12-04T00:29:21;100008.12;;;-4.52;82.90
76337;BME280;65157;50.082;18.178;2023-12-04T00:31:48;100005.73;;;-4.51;82.77
76337;BME280;65157;50.082;18.178;2023-12-04T00:34:16;100004.89;;;-4.50;82.81
76337;BME280;65157;50.082;18.178;2023-12-04T00:36:42;100003.52;;;-4.50;83.02
76337;BME280;65157;50.082;18.178;2023-12-04T00:39:09;100007.16;;;-4.49;82.91
76337;BME280;65157;50.082;18.178;2023-12-04T00:41:35;100002.73;;;-4.47;82.78
76337;BME280;65157;50.082;18.178;2023-12-04T00:44:02;100001.05;;;-4.46;82.89
76337;BME280;65157;50.082;18.178;2023-12-04T00:46:29;100006.95;;;-4.44;83.02
76337;BME280;65157;50.082;18.178;2023-12-04T00:48:55;100008.02;;;-4.43;82.87
76337;BME280;65157;50.082;18.178;2023-12-04T00:51:22;100012.20;;;-4.42;82.92
76337;BME280;65157;50.082;18.178;2023-12-04T00:53:48;100013.09;;;-4.41;82.94
76337;BME280;65157;50.082;18.178;2023-12-04T00:56:15;100015.70;;;-4.40;83.07
76337;BME280;65157;50.082;18.178;2023-12-04T00:58:42;100022.24;;;-4.40;82.90
76337;BME280;65157;50.082;18.178;2023-12-04T01:01:08;100017.95;;;-4.40;82.86
76337;BME280;65157;50.082;18.178;2023-12-04T01:03:35;100018.97;;;-4.40;82.87
76337;BME280;65157;50.082;18.178;2023-12-04T01:06:01;100012.02;;;-4.42;82.78
76337;BME280;65157;50.082;18.178;2023-12-04T01:08:28;100016.02;;;-4.40;82.77
76337;BME280;65157;50.082;18.178;2023-12-04T01:10:54;100016.34;;;-4.41;82.91
76337;BME280;65157;50.082;18.178;2023-12-04T01:13:21;100019.29;;;-4.42;83.09
76337;BME280;65157;50.082;18.178;2023-12-04T01:15:48;100017.84;;;-4.43;82.98
76337;BME280;65157;50.082;18.178;2023-12-04T01:18:14;100020.41;;;-4.43;82.86
76337;BME280;65157;50.082;18.178;2023-12-04T01:20:41;100021.45;;;-4.43;83.07
76337;BME280;65157;50.082;18.178;2023-12-04T01:23:07;100019.84;;;-4.45;83.06
76337;BME280;65157;50.082;18.178;2023-12-04T01:25:34;100028.14;;;-4.45;83.13
76337;BME280;65157;50.082;18.178;2023-12-04T01:28:01;100028.42;;;-4.46;82.94
76337;BME280;65157;50.082;18.178;2023-12-04T01:30:27;100029.93;;;-4.48;83.09
76337;BME280;65157;50.082;18.178;2023-12-04T01:32:54;100027.15;;;-4.49;82.94
76337;BME280;65157;50.082;18.178;2023-12-04T01:35:20;100028.86;;;-4.49;83.19
76337;BME280;65157;50.082;18.178;2023-12-04T01:37:47;100026.13;;;-4.48;83.12
76337;BME280;65157;50.082;18.178;2023-12-04T01:40:13;100024.55;;;-4.49;83.09
76337;BME280;65157;50.082;18.178;2023-12-04T01:42:42;100021.12;;;-4.49;83.03
76337;BME280;65157;50.082;18.178;2023-12-04T01:45:09;100019.39;;;-4.49;83.10
76337;BME280;65157;50.082;18.178;2023-12-04T01:47:36;100017.86;;;-4.48;83.28
76337;BME280;65157;50.082;18.178;2023-12-04T01:50:04;100017.20;;;-4.47;83.21
76337;BME280;65157;50.082;18.178;2023-12-04T01:52:31;100015.15;;;-4.47;83.28
76337;BME280;65157;50.082;18.178;2023-12-04T01:54:58;100014.46;;;-4.47;83.15
76337;BME280;65157;50.082;18.178;2023-12-04T01:57:25;100015.52;;;-4.46;83.23
76337;BME280;65157;50.082;18.178;2023-12-04T01:59:51;100016.72;;;-4.46;83.28
76337;BME280;65157;50.082;18.178;2023-12-04T02:02:19;100018.95;;;-4.46;83.34
76337;BME280;65157;50.082;18.178;2023-12-04T02:04:46;100020.33;;;-4.47;83.18
76337;BME280;65157;50.082;18.178;2023-12-04T02:07:12;100018.75;;;-4.47;83.33
76337;BME280;65157;50.082;18.178;2023-12-04T02:09:39;100017.99;;;-4.50;83.37
76337;BME280;65157;50.082;18.178;2023-12-04T02:12:05;100021.30;;;-4.49;83.46
76337;BME280;65157;50.082;18.178;2023-12-04T02:14:32;100017.52;;;-4.48;83.32
76337;BME280;65157;50.082;18.178;2023-12-04T02:17:01;100008.02;;;-4.49;83.35
76337;BME280;65157;50.082;18.178;2023-12-04T02:19:28;100009.69;;;-4.51;83.33
76337;BME280;65157;50.082;18.178;2023-12-04T02:21:54;100007.40;;;-4.52;83.25
76337;BME280;65157;50.082;18.178;2023-12-04T02:24:21;100006.70;;;-4.53;83.33
76337;BME280;65157;50.082;18.178;2023-12-04T02:26:58;100003.60;;;-4.53;83.36
76337;BME280;65157;50.082;18.178;2023-12-04T02:29:46;100000.98;;;-4.55;83.07
76337;BME280;65157;50.082;18.178;2023-12-04T02:32:15;100003.48;;;-4.57;83.06
76337;BME280;65157;50.082;18.178;2023-12-04T02:34:44;100004.30;;;-4.59;83.09
76337;BME280;65157;50.082;18.178;2023-12-04T02:37:12;100006.66;;;-4.61;82.88
76337;BME280;65157;50.082;18.178;2023-12-04T02:39:41;100011.42;;;-4.62;82.80
76337;BME280;65157;50.082;18.178;2023-12-04T02:42:08;100010.70;;;-4.63;83.01
76337;BME280;65157;50.082;18.178;2023-12-04T02:44:35;100009.64;;;-4.64;83.07
76337;BME280;65157;50.082;18.178;2023-12-04T02:47:01;100008.75;;;-4.65;83.04
76337;BME280;65157;50.082;18.178;2023-12-04T02:49:28;100009.25;;;-4.66;82.90
76337;BME280;65157;50.082;18.178;2023-12-04T02:51:55;100006.46;;;-4.67;82.99
76337;BME280;65157;50.082;18.178;2023-12-04T02:54:23;100002.73;;;-4.65;83.16
76337;BME280;65157;50.082;18.178;2023-12-04T02:56:50;99999.63;;;-4.65;83.18
76337;BME280;65157;50.082;18.178;2023-12-04T02:59:16;99997.02;;;-4.66;83.01
76337;BME280;65157;50.082;18.178;2023-12-04T03:01:43;99999.90;;;-4.67;83.20
76337;BME280;65157;50.082;18.178;2023-12-04T03:04:10;100006.59;;;-4.68;83.12
76337;BME280;65157;50.082;18.178;2023-12-04T03:06:36;100015.20;;;-4.69;83.20
76337;BME280;65157;50.082;18.178;2023-12-04T03:09:03;100021.19;;;-4.70;83.11
76337;BME280;65157;50.082;18.178;2023-12-04T03:11:30;100023.93;;;-4.70;83.23
76337;BME280;65157;50.082;18.178;2023-12-04T03:13:59;100019.29;;;-4.69;83.36
76337;BME280;65157;50.082;18.178;2023-12-04T03:16:27;100019.33;;;-4.68;83.28
76337;BME280;65157;50.082;18.178;2023-12-04T03:18:53;100019.85;;;-4.68;83.33
76337;BME280;65157;50.082;18.178;2023-12-04T03:21:20;100022.29;;;-4.67;83.43
76337;BME280;65157;50.082;18.178;2023-12-04T03:23:46;100023.73;;;-4.66;83.36
76337;BME280;65157;50.082;18.178;2023-12-04T03:26:13;100025.98;;;-4.65;83.24
76337;BME280;65157;50.082;18.178;2023-12-04T03:28:40;100029.61;;;-4.65;83.51
76337;BME280;65157;50.082;18.178;2023-12-04T03:31:09;100032.38;;;-4.64;83.42
76337;BME280;65157;50.082;18.178;2023-12-04T03:33:36;100030.66;;;-4.64;83.36
76337;BME280;65157;50.082;18.178;2023-12-04T03:36:02;100025.84;;;-4.69;83.40
76337;BME280;65157;50.082;18.178;2023-12-04T03:38:29;100036.20;;;-4.68;83.37
76337;BME280;65157;50.082;18.178;2023-12-04T03:40:56;100036.84;;;-4.70;83.49
76337;BME280;65157;50.082;18.178;2023-12-04T03:43:24;100032.49;;;-4.72;83.55
76337;BME280;65157;50.082;18.178;2023-12-04T03:45:51;100036.14;;;-4.71;83.45
76337;BME280;65157;50.082;18.178;2023-12-04T03:48:18;100033.73;;;-4.70;83.65
76337;BME280;65157;50.082;18.178;2023-12-04T03:50:44;100033.75;;;-4.69;83.53
76337;BME280;65157;50.082;18.178;2023-12-04T03:53:11;100034.61;;;-4.70;83.51
76337;BME280;65157;50.082;18.178;2023-12-04T03:55:37;100033.95;;;-4.69;83.53
76337;BME280;65157;50.082;18.178;2023-12-04T03:58:04;100032.06;;;-4.69;83.46
76337;BME280;65157;50.082;18.178;2023-12-04T04:00:30;100032.57;;;-4.69;83.23
76337;BME280;65157;50.082;18.178;2023-12-04T04:02:57;100035.45;;;-4.71;83.14
76337;BME280;65157;50.082;18.178;2023-12-04T04:05:24;100037.66;;;-4.71;82.99
76337;BME280;65157;50.082;18.178;2023-12-04T04:07:50;100035.48;;;-4.75;82.87
76337;BME280;65157;50.082;18.178;2023-12-04T04:10:17;100035.48;;;-4.80;82.75
76337;BME280;65157;50.082;18.178;2023-12-04T04:12:43;100040.67;;;-4.85;82.90
76337;BME280;65157;50.082;18.178;2023-12-04T04:15:10;100045.42;;;-4.87;82.77
76337;BME280;65157;50.082;18.178;2023-12-04T04:17:36;100047.21;;;-4.90;82.65
76337;BME280;65157;50.082;18.178;2023-12-04T04:20:04;100043.67;;;-4.93;82.53
76337;BME280;65157;50.082;18.178;2023-12-04T04:22:30;100036.42;;;-4.99;82.45
76337;BME280;65157;50.082;18.178;2023-12-04T04:24:57;100038.91;;;-5.02;82.27
76337;BME280;65157;50.082;18.178;2023-12-04T04:27:23;100037.05;;;-5.06;82.01
76337;BME280;65157;50.082;18.178;2023-12-04T04:29:50;100036.84;;;-5.13;81.80
76337;BME280;65157;50.082;18.178;2023-12-04T04:32:17;100032.02;;;-5.18;81.72
76337;BME280;65157;50.082;18.178;2023-12-04T04:34:43;100026.86;;;-5.23;81.95
76337;BME280;65157;50.082;18.178;2023-12-04T04:37:10;100024.80;;;-5.28;81.72
76337;BME280;65157;50.082;18.178;2023-12-04T04:39:36;100029.08;;;-5.34;81.75
76337;BME280;65157;50.082;18.178;2023-12-04T04:42:03;100038.34;;;-5.40;81.67
76337;BME280;65157;50.082;18.178;2023-12-04T04:44:30;100042.26;;;-5.46;81.60
76337;BME280;65157;50.082;18.178;2023-12-04T04:46:56;100043.77;;;-5.52;81.18
76337;BME280;65157;50.082;18.178;2023-12-04T04:49:23;100040.81;;;-5.58;81.19
76337;BME280;65157;50.082;18.178;2023-12-04T04:51:49;100032.16;;;-5.65;81.00
76337;BME280;65157;50.082;18.178;2023-12-04T04:54:16;100031.78;;;-5.71;80.97
76337;BME280;65157;50.082;18.178;2023-12-04T04:56:43;100033.82;;;-5.76;81.31
76337;BME280;65157;50.082;18.178;2023-12-04T04:59:09;100032.84;;;-5.79;81.45
76337;BME280;65157;50.082;18.178;2023-12-04T05:01:36;100024.25;;;-5.85;81.69
76337;BME280;65157;50.082;18.178;2023-12-04T05:04:02;100031.10;;;-5.85;81.60
76337;BME280;65157;50.082;18.178;2023-12-04T05:06:29;100037.71;;;-5.93;80.77
76337;BME280;65157;50.082;18.178;2023-12-04T05:08:56;100032.85;;;-6.04;80.59
76337;BME280;65157;50.082;18.178;2023-12-04T05:11:23;100027.25;;;-6.12;80.30
76337;BME280;65157;50.082;18.178;2023-12-04T05:13:49;100024.42;;;-6.18;80.50
76337;BME280;65157;50.082;18.178;2023-12-04T05:16:16;100025.98;;;-6.22;80.90
76337;BME280;65157;50.082;18.178;2023-12-04T05:18:43;100033.91;;;-6.26;81.23
76337;BME280;65157;50.082;18.178;2023-12-04T05:21:10;100036.19;;;-6.30;81.04
76337;BME280;65157;50.082;18.178;2023-12-04T05:23:37;100036.75;;;-6.38;80.82
76337;BME280;65157;50.082;18.178;2023-12-04T05:26:06;100033.41;;;-6.45;80.64
76337;BME280;65157;50.082;18.178;2023-12-04T05:28:34;100033.46;;;-6.52;80.27
76337;BME280;65157;50.082;18.178;2023-12-04T05:31:01;100033.19;;;-6.59;80.09
76337;BME280;65157;50.082;18.178;2023-12-04T05:33:27;100032.86;;;-6.68;79.81
76337;BME280;65157;50.082;18.178;2023-12-04T05:35:54;100034.34;;;-6.74;79.78
76337;BME280;65157;50.082;18.178;2023-12-04T05:38:20;100033.21;;;-6.81;79.46
76337;BME280;65157;50.082;18.178;2023-12-04T05:40:47;100032.23;;;-6.89;79.48
76337;BME280;65157;50.082;18.178;2023-12-04T05:43:13;100031.30;;;-6.94;79.23
76337;BME280;65157;50.082;18.178;2023-12-04T05:45:40;100030.48;;;-7.02;78.85
76337;BME280;65157;50.082;18.178;2023-12-04T05:48:07;100028.96;;;-7.10;78.86
76337;BME280;65157;50.082;18.178;2023-12-04T05:50:33;100031.95;;;-7.17;78.61
76337;BME280;65157;50.082;18.178;2023-12-04T05:53:00;100027.86;;;-7.24;78.52
76337;BME280;65157;50.082;18.178;2023-12-04T05:55:26;100025.01;;;-7.31;78.56
76337;BME280;65157;50.082;18.178;2023-12-04T05:57:53;100019.90;;;-7.34;78.25
76337;BME280;65157;50.082;18.178;2023-12-04T06:00:20;100017.56;;;-7.41;78.12
76337;BME280;65157;50.082;18.178;2023-12-04T06:02:49;100014.11;;;-7.46;78.35
76337;BME280;65157;50.082;18.178;2023-12-04T06:05:17;100013.62;;;-7.50;78.41
76337;BME280;65157;50.082;18.178;2023-12-04T06:07:43;100012.85;;;-7.52;78.54
76337;BME280;65157;50.082;18.178;2023-12-04T06:10:10;100014.55;;;-7.52;79.18
76337;BME280;65157;50.082;18.178;2023-12-04T06:12:37;100008.13;;;-7.50;79.86
76337;BME280;65157;50.082;18.178;2023-12-04T06:15:04;100011.78;;;-7.48;79.91
76337;BME280;65157;50.082;18.178;2023-12-04T06:17:31;100014.86;;;-7.49;79.74
76337;BME280;65157;50.082;18.178;2023-12-04T06:19:58;100016.41;;;-7.53;78.78
76337;BME280;65157;50.082;18.178;2023-12-04T06:22:25;100010.55;;;-7.62;78.52
76337;BME280;65157;50.082;18.178;2023-12-04T06:24:52;99999.30;;;-7.68;79.26
76337;BME280;65157;50.082;18.178;2023-12-04T06:27:19;100010.43;;;-7.60;79.97
76337;BME280;65157;50.082;18.178;2023-12-04T06:29:47;100006.09;;;-7.62;79.78
76337;BME280;65157;50.082;18.178;2023-12-04T06:32:14;100004.55;;;-7.62;79.79
76337;BME280;65157;50.082;18.178;2023-12-04T06:34:41;99999.03;;;-7.62;80.01
76337;BME280;65157;50.082;18.178;2023-12-04T06:37:12;100002.48;;;-7.62;80.33
76337;BME280;65157;50.082;18.178;2023-12-04T06:39:40;99999.95;;;-7.61;80.43
76337;BME280;65157;50.082;18.178;2023-12-04T06:42:09;100007.33;;;-7.61;80.55
76337;BME280;65157;50.082;18.178;2023-12-04T06:44:36;100009.90;;;-7.61;80.58
76337;BME280;65157;50.082;18.178;2023-12-04T06:47:04;100014.80;;;-7.62;80.13
76337;BME280;65157;50.082;18.178;2023-12-04T06:49:32;100013.05;;;-7.67;79.63
76337;BME280;65157;50.082;18.178;2023-12-04T06:52:00;100020.23;;;-7.72;79.68
76337;BME280;65157;50.082;18.178;2023-12-04T06:54:27;100028.96;;;-7.76;79.49
76337;BME280;65157;50.082;18.178;2023-12-04T06:56:54;100035.52;;;-7.79;79.31
76337;BME280;65157;50.082;18.178;2023-12-04T06:59:21;100032.16;;;-7.81;79.43
76337;BME280;65157;50.082;18.178;2023-12-04T07:01:49;100034.30;;;-7.83;79.43
76337;BME280;65157;50.082;18.178;2023-12-04T07:04:16;100034.80;;;-7.83;79.61
76337;BME280;65157;50.082;18.178;2023-12-04T07:06:42;100035.96;;;-7.84;79.54
76337;BME280;65157;50.082;18.178;2023-12-04T07:09:09;100034.35;;;-7.82;79.84
76337;BME280;65157;50.082;18.178;2023-12-04T07:11:36;100040.58;;;-7.81;79.67
76337;BME280;65157;50.082;18.178;2023-12-04T07:14:02;100040.73;;;-7.81;79.29
76337;BME280;65157;50.082;18.178;2023-12-04T07:16:29;100031.60;;;-7.82;79.02
76337;BME280;65157;50.082;18.178;2023-12-04T07:18:57;100026.23;;;-7.83;78.94
76337;BME280;65157;50.082;18.178;2023-12-04T07:21:23;100033.41;;;-7.84;78.80
76337;BME280;65157;50.082;18.178;2023-12-04T07:23:50;100037.53;;;-7.83;78.78
76337;BME280;65157;50.082;18.178;2023-12-04T07:26:17;100035.31;;;-7.83;78.62
76337;BME280;65157;50.082;18.178;2023-12-04T07:28:43;100034.77;;;-7.80;78.58
76337;BME280;65157;50.082;18.178;2023-12-04T07:31:10;100039.96;;;-7.75;78.59
76337;BME280;65157;50.082;18.178;2023-12-04T07:33:36;100034.35;;;-7.74;78.65
76337;BME280;65157;50.082;18.178;2023-12-04T07:36:03;100035.50;;;-7.71;78.87
76337;BME280;65157;50.082;18.178;2023-12-04T07:38:30;100039.56;;;-7.68;78.93
76337;BME280;65157;50.082;18.178;2023-12-04T07:40:57;100035.48;;;-7.64;79.12
76337;BME280;65157;50.082;18.178;2023-12-04T07:43:23;100032.90;;;-7.60;79.51
76337;BME280;65157;50.082;18.178;2023-12-04T07:45:50;100038.71;;;-7.56;79.78
76337;BME280;65157;50.082;18.178;2023-12-04T07:48:17;100038.75;;;-7.51;80.17
76337;BME280;65157;50.082;18.178;2023-12-04T07:50:43;100038.27;;;-7.47;80.54
76337;BME280;65157;50.082;18.178;2023-12-04T07:53:10;100035.50;;;-7.43;80.99
76337;BME280;65157;50.082;18.178;2023-12-04T07:55:36;100029.86;;;-7.38;80.96
76337;BME280;65157;50.082;18.178;2023-12-04T07:58:03;100018.05;;;-7.38;81.00
76337;BME280;65157;50.082;18.178;2023-12-04T08:00:29;100020.12;;;-7.33;81.06
76337;BME280;65157;50.082;18.178;2023-12-04T08:02:56;100021.52;;;-7.28;81.20
76337;BME280;65157;50.082;18.178;2023-12-04T08:05:23;100020.18;;;-7.24;81.28
76337;BME280;65157;50.082;18.178;2023-12-04T08:07:49;100020.02;;;-7.19;81.22
76337;BME280;65157;50.082;18.178;2023-12-04T08:10:16;100021.79;;;-7.18;80.66
76337;BME280;65157;50.082;18.178;2023-12-04T08:12:44;100019.44;;;-7.20;80.46
76337;BME280;65157;50.082;18.178;2023-12-04T08:15:11;100020.96;;;-7.21;80.59
76337;BME280;65157;50.082;18.178;2023-12-04T08:17:39;100020.52;;;-7.20;80.80
76337;BME280;65157;50.082;18.178;2023-12-04T08:20:06;100023.32;;;-7.18;80.74
76337;BME280;65157;50.082;18.178;2023-12-04T08:22:33;100018.92;;;-7.17;80.93
76337;BME280;65157;50.082;18.178;2023-12-04T08:25:00;100013.41;;;-7.13;81.04
76337;BME280;65157;50.082;18.178;2023-12-04T08:27:26;100011.67;;;-7.10;81.03
76337;BME280;65157;50.082;18.178;2023-12-04T08:29:53;100013.02;;;-7.06;81.17
76337;BME280;65157;50.082;18.178;2023-12-04T08:32:20;100013.06;;;-7.05;81.26
76337;BME280;65157;50.082;18.178;2023-12-04T08:34:47;100016.14;;;-7.00;81.29
76337;BME280;65157;50.082;18.178;2023-12-04T08:37:14;100015.92;;;-6.97;81.20
76337;BME280;65157;50.082;18.178;2023-12-04T08:39:41;100014.40;;;-6.97;81.05
76337;BME280;65157;50.082;18.178;2023-12-04T08:42:07;100014.11;;;-6.99;80.85
76337;BME280;65157;50.082;18.178;2023-12-04T08:44:34;100019.54;;;-7.02;80.77
76337;BME280;65157;50.082;18.178;2023-12-04T08:47:01;100019.82;;;-7.03;80.84
76337;BME280;65157;50.082;18.178;2023-12-04T08:49:27;100013.95;;;-7.04;80.71
76337;BME280;65157;50.082;18.178;2023-12-04T08:51:54;100015.64;;;-7.05;80.82
76337;BME280;65157;50.082;18.178;2023-12-04T08:54:20;100012.98;;;-7.02;80.98
76337;BME280;65157;50.082;18.178;2023-12-04T08:56:47;100009.45;;;-6.96;81.04
76337;BME280;65157;50.082;18.178;2023-12-04T08:59:14;100006.73;;;-6.91;80.89
76337;BME280;65157;50.082;18.178;2023-12-04T09:01:40;100007.13;;;-6.85;80.82
76337;BME280;65157;50.082;18.178;2023-12-04T09:04:08;100007.45;;;-6.81;80.72
76337;BME280;65157;50.082;18.178;2023-12-04T09:06:35;100002.60;;;-6.78;80.60
76337;BME280;65157;50.082;18.178;2023-12-04T09:09:02;100007.59;;;-6.73;80.51
76337;BME280;65157;50.082;18.178;2023-12-04T09:11:30;100004.15;;;-6.69;80.34
76337;BME280;65157;50.082;18.178;2023-12-04T09:13:57;100006.98;;;-6.63;80.54
76337;BME280;65157;50.082;18.178;2023-12-04T09:16:23;100005.34;;;-6.56;80.70
76337;BME280;65157;50.082;18.178;2023-12-04T09:18:50;100003.48;;;-6.51;80.54
76337;BME280;65157;50.082;18.178;2023-12-04T09:21:17;99996.12;;;-6.46;80.64
76337;BME280;65157;50.082;18.178;2023-12-04T09:23:43;99995.90;;;-6.38;80.58
76337;BME280;65157;50.082;18.178;2023-12-04T09:26:11;99998.39;;;-6.31;80.72
76337;BME280;65157;50.082;18.178;2023-12-04T09:28:38;99994.92;;;-6.22;81.12
76337;BME280;65157;50.082;18.178;2023-12-04T09:31:04;99992.13;;;-6.14;80.99
76337;BME280;65157;50.082;18.178;2023-12-04T09:33:31;99985.10;;;-6.04;81.19
76337;BME280;65157;50.082;18.178;2023-12-04T09:35:58;99978.90;;;-5.95;81.34
76337;BME280;65157;50.082;18.178;2023-12-04T09:38:24;99973.66;;;-5.87;81.32
76337;BME280;65157;50.082;18.178;2023-12-04T09:40:51;99975.70;;;-5.77;81.45
76337;BME280;65157;50.082;18.178;2023-12-04T09:43:19;99966.42;;;-5.66;81.51
76337;BME280;65157;50.082;18.178;2023-12-04T09:45:46;99967.29;;;-5.56;81.71
76337;BME280;65157;50.082;18.178;2023-12-04T09:48:13;99959.70;;;-5.46;81.57
76337;BME280;65157;50.082;18.178;2023-12-04T09:50:39;99945.09;;;-5.36;81.70
76337;BME280;65157;50.082;18.178;2023-12-04T09:53:10;99943.02;;;-5.25;81.65
76337;BME280;65157;50.082;18.178;2023-12-04T09:55:37;99938.70;;;-5.15;81.54
76337;BME280;65157;50.082;18.178;2023-12-04T09:58:04;99935.55;;;-5.05;81.38
76337;BME280;65157;50.082;18.178;2023-12-04T10:00:31;99932.66;;;-4.98;81.16
76337;BME280;65157;50.082;18.178;2023-12-04T10:02:58;99927.20;;;-4.91;81.00
76337;BME280;65157;50.082;18.178;2023-12-04T10:05:25;99923.38;;;-4.81;81.13
76337;BME280;65157;50.082;18.178;2023-12-04T10:07:51;99918.68;;;-4.71;81.13
76337;BME280;65157;50.082;18.178;2023-12-04T10:10:18;99910.33;;;-4.62;80.98
76337;BME280;65157;50.082;18.178;2023-12-04T10:12:44;99907.71;;;-4.51;81.04
76337;BME280;65157;50.082;18.178;2023-12-04T10:15:12;99898.93;;;-4.45;81.09
76337;BME280;65157;50.082;18.178;2023-12-04T10:17:40;99901.54;;;-4.32;81.16
76337;BME280;65157;50.082;18.178;2023-12-04T10:20:14;99894.61;;;-4.20;80.80
76337;BME280;65157;50.082;18.178;2023-12-04T10:23:00;99890.92;;;-4.10;80.78
76337;BME280;65157;50.082;18.178;2023-12-04T10:25:29;99888.65;;;-3.98;80.17
76337;BME280;65157;50.082;18.178;2023-12-04T10:28:16;99887.88;;;-3.88;80.19
76337;BME280;65157;50.082;18.178;2023-12-04T10:30:44;99877.77;;;-3.78;80.03
76337;BME280;65157;50.082;18.178;2023-12-04T10:33:12;99882.67;;;-3.62;80.04
76337;BME280;65157;50.082;18.178;2023-12-04T10:35:39;99882.65;;;-3.48;79.70
76337;BME280;65157;50.082;18.178;2023-12-04T10:38:06;99886.10;;;-3.33;79.50
76337;BME280;65157;50.082;18.178;2023-12-04T10:40:33;99877.36;;;-3.16;79.40
76337;BME280;65157;50.082;18.178;2023-12-04T10:43:21;99873.95;;;-2.98;78.93
76337;BME280;65157;50.082;18.178;2023-12-04T10:45:49;99868.39;;;-2.76;78.78
76337;BME280;65157;50.082;18.178;2023-12-04T10:48:17;99866.77;;;-2.54;79.01
76337;BME280;65157;50.082;18.178;2023-12-04T10:50:46;99860.67;;;-2.29;78.51
76337;BME280;65157;50.082;18.178;2023-12-04T10:53:14;99839.84;;;-2.16;77.39
76337;BME280;65157;50.082;18.178;2023-12-04T10:55:43;99839.23;;;-2.00;76.83
76337;BME280;65157;50.082;18.178;2023-12-04T10:58:12;99836.41;;;-1.84;76.38
76337;BME280;65157;50.082;18.178;2023-12-04T11:00:42;99834.76;;;-1.69;76.24
76337;BME280;65157;50.082;18.178;2023-12-04T11:03:32;99824.29;;;-1.52;76.28
76337;BME280;65157;50.082;18.178;2023-12-04T11:06:01;99822.48;;;-1.22;76.82
76337;BME280;65157;50.082;18.178;2023-12-04T11:08:29;99820.23;;;-0.96;76.02
76337;BME280;65157;50.082;18.178;2023-12-04T11:11:04;99819.33;;;-0.72;75.49
76337;BME280;65157;50.082;18.178;2023-12-04T11:13:32;99815.92;;;-0.50;75.05
76337;BME280;65157;50.082;18.178;2023-12-04T11:16:02;99813.04;;;-0.29;74.70
76337;BME280;65157;50.082;18.178;2023-12-04T11:18:36;99807.45;;;-0.14;73.75
76337;BME280;65157;50.082;18.178;2023-12-04T11:21:07;99806.91;;;0.01;73.39
76337;BME280;65157;50.082;18.178;2023-12-04T11:23:35;99803.38;;;0.15;73.25
76337;BME280;65157;50.082;18.178;2023-12-04T11:26:03;99801.38;;;0.26;72.57
76337;BME280;65157;50.082;18.178;2023-12-04T11:28:31;99797.29;;;0.35;72.10
76337;BME280;65157;50.082;18.178;2023-12-04T11:30:59;99794.52;;;0.38;71.75
76337;BME280;65157;50.082;18.178;2023-12-04T11:33:27;99791.42;;;0.40;71.51
76337;BME280;65157;50.082;18.178;2023-12-04T11:36:06;99788.98;;;0.40;71.08
76337;BME280;65157;50.082;18.178;2023-12-04T11:38:33;99789.36;;;0.43;71.10
76337;BME280;65157;50.082;18.178;2023-12-04T11:40:59;99782.10;;;0.48;71.06
76337;BME280;65157;50.082;18.178;2023-12-04T11:43:27;99773.82;;;0.56;70.99
76337;BME280;65157;50.082;18.178;2023-12-04T11:46:10;99770.39;;;0.65;71.56
76337;BME280;65157;50.082;18.178;2023-12-04T11:48:40;99768.04;;;0.75;70.93
76337;BME280;65157;50.082;18.178;2023-12-04T11:51:07;99765.98;;;0.83;70.67
76337;BME280;65157;50.082;18.178;2023-12-04T11:53:39;99763.38;;;0.84;69.96
76337;BME280;65157;50.082;18.178;2023-12-04T11:56:13;99757.98;;;0.83;69.99
76337;BME280;65157;50.082;18.178;2023-12-04T11:58:44;99750.16;;;0.86;70.31
76337;BME280;65157;50.082;18.178;2023-12-04T12:01:11;99744.11;;;0.90;69.80
76337;BME280;65157;50.082;18.178;2023-12-04T12:03:38;99741.15;;;0.87;69.16
76337;BME280;65157;50.082;18.178;2023-12-04T12:06:05;99736.41;;;0.76;69.06
76337;BME280;65157;50.082;18.178;2023-12-04T12:08:32;99731.85;;;0.69;68.82
76337;BME280;65157;50.082;18.178;2023-12-04T12:10:59;99730.42;;;0.62;68.94
76337;BME280;65157;50.082;18.178;2023-12-04T12:13:26;99727.43;;;0.53;68.95
76337;BME280;65157;50.082;18.178;2023-12-04T12:15:53;99727.42;;;0.52;69.19
76337;BME280;65157;50.082;18.178;2023-12-04T12:18:21;99720.33;;;0.55;69.20
76337;BME280;65157;50.082;18.178;2023-12-04T12:20:48;99722.43;;;0.61;69.15
76337;BME280;65157;50.082;18.178;2023-12-04T12:23:15;99718.30;;;0.67;69.26
76337;BME280;65157;50.082;18.178;2023-12-04T12:25:41;99717.30;;;0.76;69.37
76337;BME280;65157;50.082;18.178;2023-12-04T12:28:09;99712.84;;;0.90;69.16
76337;BME280;65157;50.082;18.178;2023-12-04T12:30:37;99705.89;;;0.91;68.77
76337;BME280;65157;50.082;18.178;2023-12-04T12:33:03;99698.02;;;0.79;68.28
76337;BME280;65157;50.082;18.178;2023-12-04T12:35:31;99700.09;;;0.73;68.79
76337;BME280;65157;50.082;18.178;2023-12-04T12:37:58;99696.58;;;0.66;68.72
76337;BME280;65157;50.082;18.178;2023-12-04T12:40:28;99692.24;;;0.66;68.72
76337;BME280;65157;50.082;18.178;2023-12-04T12:43:03;99690.70;;;0.72;68.89